sensor_id;sensor_type;location;lat;lon;timestamp;pressure;altitude;pressure_sealevel;temperature;humidity
55070;BME280;40967;52.070;8.596;2024-03-29T00:01:47;98415.91;;;7.03;92.69
55070;BME280;40967;52.070;8.596;2024-03-29T00:04:13;98422.31;;;7.07;92.59
55070;BME280;40967;52.070;8.596;2024-03-29T00:06:39;98351.94;;;6.62;92.18
55070;BME280;40967;52.070;8.596;2024-03-29T00:09:05;98373.28;;;6.72;92.46
55070;BME280;40967;52.070;8.596;2024-03-29T00:11:31;98420.69;;;7.06;92.70
55070;BME280;40967;52.070;8.596;2024-03-29T00:13:56;98410.50;;;7.03;91.47
55070;BME280;40967;52.070;8.596;2024-03-29T00:16:24;98382.94;;;6.92;92.41
55070;BME280;40967;52.070;8.596;2024-03-29T00:18:52;98397.72;;;6.95;92.24
55070;BME280;40967;52.070;8.596;2024-03-29T00:21:17;98392.41;;;6.89;92.25
55070;BME280;40967;52.070;8.596;2024-03-29T00:23:43;98381.03;;;6.79;91.66
55070;BME280;40967;52.070;8.596;2024-03-29T00:26:09;98404.19;;;6.93;91.82
55070;BME280;40967;52.070;8.596;2024-03-29T00:28:35;98409.59;;;6.93;91.72
55070;BME280;40967;52.070;8.596;2024-03-29T00:31:01;98402.59;;;6.93;91.69
55070;BME280;40967;52.070;8.596;2024-03-29T00:33:26;98412.38;;;6.88;91.72
55070;BME280;40967;52.070;8.596;2024-03-29T00:35:53;98409.97;;;6.87;92.14
55070;BME280;40967;52.070;8.596;2024-03-29T00:38:19;98407.56;;;6.85;92.70
55070;BME280;40967;52.070;8.596;2024-03-29T00:40:45;98408.69;;;6.84;92.28
55070;BME280;40967;52.070;8.596;2024-03-29T00:43:10;98397.09;;;6.84;92.71
55070;BME280;40967;52.070;8.596;2024-03-29T00:45:36;98402.78;;;6.82;92.87
55070;BME280;40967;52.070;8.596;2024-03-29T00:48:03;98393.19;;;6.76;91.84
55070;BME280;40967;52.070;8.596;2024-03-29T00:50:29;98408.75;;;6.79;92.49
55070;BME280;40967;52.070;8.596;2024-03-29T00:52:56;98402.06;;;6.77;92.55
55070;BME280;40967;52.070;8.596;2024-03-29T00:55:21;98391.69;;;6.70;92.81
55070;BME280;40967;52.070;8.596;2024-03-29T00:57:47;98402.88;;;6.77;92.47
55070;BME280;40967;52.070;8.596;2024-03-29T01:00:13;98397.50;;;6.77;92.39
55070;BME280;40967;52.070;8.596;2024-03-29T01:02:39;98398.06;;;6.74;93.11
55070;BME280;40967;52.070;8.596;2024-03-29T01:05:05;98389.75;;;6.71;92.22
55070;BME280;40967;52.070;8.596;2024-03-29T01:07:31;98400.75;;;6.74;92.20
55070;BME280;40967;52.070;8.596;2024-03-29T01:09:59;98394.28;;;6.75;92.36
55070;BME280;40967;52.070;8.596;2024-03-29T01:12:24;98392.66;;;6.74;92.21
55070;BME280;40967;52.070;8.596;2024-03-29T01:14:50;98384.06;;;6.72;92.03
55070;BME280;40967;52.070;8.596;2024-03-29T01:17:16;98391.09;;;6.73;92.08
55070;BME280;40967;52.070;8.596;2024-03-29T01:19:42;98395.97;;;6.71;92.63
55070;BME280;40967;52.070;8.596;2024-03-29T01:22:08;98389.00;;;6.70;92.69
55070;BME280;40967;52.070;8.596;2024-03-29T01:24:34;98371.47;;;6.54;93.20
55070;BME280;40967;52.070;8.596;2024-03-29T01:27:01;98394.66;;;6.69;93.19
55070;BME280;40967;52.070;8.596;2024-03-29T01:29:27;98401.53;;;6.61;92.31
55070;BME280;40967;52.070;8.596;2024-03-29T01:31:53;98422.91;;;6.71;92.47
55070;BME280;40967;52.070;8.596;2024-03-29T01:34:19;98404.34;;;6.70;92.44
55070;BME280;40967;52.070;8.596;2024-03-29T01:36:44;98404.66;;;6.68;92.75
55070;BME280;40967;52.070;8.596;2024-03-29T01:39:10;98415.72;;;6.67;92.03
55070;BME280;40967;52.070;8.596;2024-03-29T01:41:36;98411.13;;;6.67;92.35
55070;BME280;40967;52.070;8.596;2024-03-29T01:44:03;98406.22;;;6.69;91.47
55070;BME280;40967;52.070;8.596;2024-03-29T01:46:31;98403.53;;;6.69;91.09
55070;BME280;40967;52.070;8.596;2024-03-29T01:49:01;98396.06;;;6.66;91.11
55070;BME280;40967;52.070;8.596;2024-03-29T01:51:28;98406.22;;;6.69;90.92
55070;BME280;40967;52.070;8.596;2024-03-29T01:53:57;98403.25;;;6.71;90.01
55070;BME280;40967;52.070;8.596;2024-03-29T01:56:25;98370.47;;;6.50;89.92
55070;BME280;40967;52.070;8.596;2024-03-29T01:58:53;98399.59;;;6.80;89.73
55070;BME280;40967;52.070;8.596;2024-03-29T02:01:24;98396.78;;;6.85;89.62
55070;BME280;40967;52.070;8.596;2024-03-29T02:03:52;98390.59;;;6.85;89.18
55070;BME280;40967;52.070;8.596;2024-03-29T02:06:20;98386.22;;;6.89;89.09
55070;BME280;40967;52.070;8.596;2024-03-29T02:08:49;98391.31;;;6.90;88.99
55070;BME280;40967;52.070;8.596;2024-03-29T02:11:18;98391.31;;;6.90;88.18
55070;BME280;40967;52.070;8.596;2024-03-29T02:13:46;98380.03;;;6.88;87.93
55070;BME280;40967;52.070;8.596;2024-03-29T02:16:13;98376.03;;;6.86;88.28
55070;BME280;40967;52.070;8.596;2024-03-29T02:18:41;98351.69;;;6.77;88.18
55070;BME280;40967;52.070;8.596;2024-03-29T02:21:08;98363.13;;;6.83;87.61
55070;BME280;40967;52.070;8.596;2024-03-29T02:23:37;98376.16;;;6.95;87.61
55070;BME280;40967;52.070;8.596;2024-03-29T02:26:07;98368.06;;;6.95;87.75
55070;BME280;40967;52.070;8.596;2024-03-29T02:28:34;98367.97;;;7.00;87.10
55070;BME280;40967;52.070;8.596;2024-03-29T02:31:01;98359.88;;;7.00;86.66
55070;BME280;40967;52.070;8.596;2024-03-29T02:33:28;98346.81;;;6.93;86.03
55070;BME280;40967;52.070;8.596;2024-03-29T02:35:55;98357.69;;;7.02;86.01
55070;BME280;40967;52.070;8.596;2024-03-29T02:38:22;98350.56;;;7.06;86.26
55070;BME280;40967;52.070;8.596;2024-03-29T02:40:49;98335.00;;;7.03;86.21
55070;BME280;40967;52.070;8.596;2024-03-29T02:43:17;98313.84;;;6.96;86.97
55070;BME280;40967;52.070;8.596;2024-03-29T02:45:44;98331.72;;;7.06;86.23
55070;BME280;40967;52.070;8.596;2024-03-29T02:48:10;98323.16;;;7.04;85.49
55070;BME280;40967;52.070;8.596;2024-03-29T02:50:36;98334.13;;;7.07;85.43
55070;BME280;40967;52.070;8.596;2024-03-29T02:53:03;98331.91;;;7.09;85.07
55070;BME280;40967;52.070;8.596;2024-03-29T02:55:30;98310.34;;;6.96;85.25
55070;BME280;40967;52.070;8.596;2024-03-29T02:57:56;98319.75;;;7.12;85.11
55070;BME280;40967;52.070;8.596;2024-03-29T03:00:24;98337.13;;;7.19;85.33
55070;BME280;40967;52.070;8.596;2024-03-29T03:02:49;98343.28;;;7.20;85.11
55070;BME280;40967;52.070;8.596;2024-03-29T03:05:16;98337.81;;;7.11;84.87
55070;BME280;40967;52.070;8.596;2024-03-29T03:07:42;98339.31;;;7.17;84.88
55070;BME280;40967;52.070;8.596;2024-03-29T03:10:26;98352.59;;;7.27;84.78
55070;BME280;40967;52.070;8.596;2024-03-29T03:13:10;98338.91;;;7.24;84.82
55070;BME280;40967;52.070;8.596;2024-03-29T03:15:38;98357.19;;;7.27;85.00
55070;BME280;40967;52.070;8.596;2024-03-29T03:18:06;98345.63;;;7.26;85.04
55070;BME280;40967;52.070;8.596;2024-03-29T03:20:31;98350.28;;;7.34;84.88
55070;BME280;40967;52.070;8.596;2024-03-29T03:22:58;98342.63;;;7.28;84.98
55070;BME280;40967;52.070;8.596;2024-03-29T03:25:24;98340.31;;;7.35;84.97
55070;BME280;40967;52.070;8.596;2024-03-29T03:27:51;98341.91;;;7.36;84.91
55070;BME280;40967;52.070;8.596;2024-03-29T03:30:17;98341.91;;;7.36;85.03
55070;BME280;40967;52.070;8.596;2024-03-29T03:32:45;98357.16;;;7.40;84.89
55070;BME280;40967;52.070;8.596;2024-03-29T03:35:10;98345.28;;;7.41;84.82
55070;BME280;40967;52.070;8.596;2024-03-29T03:37:37;98354.66;;;7.44;85.34
55070;BME280;40967;52.070;8.596;2024-03-29T03:40:04;98345.50;;;7.45;85.78
55070;BME280;40967;52.070;8.596;2024-03-29T03:42:31;98358.97;;;7.45;85.32
55070;BME280;40967;52.070;8.596;2024-03-29T03:44:57;98360.06;;;7.44;85.42
55070;BME280;40967;52.070;8.596;2024-03-29T03:47:24;98352.47;;;7.46;86.08
55070;BME280;40967;52.070;8.596;2024-03-29T03:49:51;98342.59;;;7.41;85.39
55070;BME280;40967;52.070;8.596;2024-03-29T03:52:18;98354.28;;;7.50;85.64
55070;BME280;40967;52.070;8.596;2024-03-29T03:54:43;98346.00;;;7.47;85.41
55070;BME280;40967;52.070;8.596;2024-03-29T03:57:10;98364.16;;;7.55;85.46
55070;BME280;40967;52.070;8.596;2024-03-29T03:59:35;98358.75;;;7.55;86.03
55070;BME280;40967;52.070;8.596;2024-03-29T04:02:02;98364.84;;;7.60;85.83
55070;BME280;40967;52.070;8.596;2024-03-29T04:04:28;98370.94;;;7.66;85.15
55070;BME280;40967;52.070;8.596;2024-03-29T04:06:57;98369.84;;;7.67;85.47
55070;BME280;40967;52.070;8.596;2024-03-29T04:09:23;98379.25;;;7.69;85.16
55070;BME280;40967;52.070;8.596;2024-03-29T04:11:49;98364.44;;;7.67;85.24
55070;BME280;40967;52.070;8.596;2024-03-29T04:14:15;98379.44;;;7.73;85.00
55070;BME280;40967;52.070;8.596;2024-03-29T04:16:41;98373.22;;;7.72;84.84
55070;BME280;40967;52.070;8.596;2024-03-29T04:19:07;98382.81;;;7.78;84.72
55070;BME280;40967;52.070;8.596;2024-03-29T04:21:34;98381.91;;;7.83;83.99
55070;BME280;40967;52.070;8.596;2024-03-29T04:24:01;98383.59;;;7.79;84.00
55070;BME280;40967;52.070;8.596;2024-03-29T04:26:28;98384.19;;;7.89;84.70
55070;BME280;40967;52.070;8.596;2024-03-29T04:28:53;98391.38;;;7.94;85.02
55070;BME280;40967;52.070;8.596;2024-03-29T04:31:20;98396.69;;;7.85;85.46
55070;BME280;40967;52.070;8.596;2024-03-29T04:33:45;98422.06;;;7.98;86.47
55070;BME280;40967;52.070;8.596;2024-03-29T04:36:12;98394.78;;;7.86;87.05
55070;BME280;40967;52.070;8.596;2024-03-29T04:38:38;98419.88;;;8.00;87.81
55070;BME280;40967;52.070;8.596;2024-03-29T04:41:06;98397.88;;;7.93;89.37
55070;BME280;40967;52.070;8.596;2024-03-29T04:43:33;98410.88;;;7.91;90.42
55070;BME280;40967;52.070;8.596;2024-03-29T04:46:03;98428.28;;;7.98;91.65
55070;BME280;40967;52.070;8.596;2024-03-29T04:48:34;98392.44;;;7.71;93.22
55070;BME280;40967;52.070;8.596;2024-03-29T04:51:00;98435.69;;;7.93;93.73
55070;BME280;40967;52.070;8.596;2024-03-29T04:53:27;98450.41;;;7.87;95.20
55070;BME280;40967;52.070;8.596;2024-03-29T04:55:54;98434.09;;;7.78;96.05
55070;BME280;40967;52.070;8.596;2024-03-29T04:58:22;98452.81;;;7.88;97.44
55070;BME280;40967;52.070;8.596;2024-03-29T05:00:49;98448.09;;;7.80;97.86
55070;BME280;40967;52.070;8.596;2024-03-29T05:03:17;98449.19;;;7.79;98.44
55070;BME280;40967;52.070;8.596;2024-03-29T05:05:44;98463.97;;;7.82;99.33
55070;BME280;40967;52.070;8.596;2024-03-29T05:08:11;98453.41;;;7.72;100.00
55070;BME280;40967;52.070;8.596;2024-03-29T05:10:39;98453.09;;;7.73;100.00
55070;BME280;40967;52.070;8.596;2024-03-29T05:13:05;98474.38;;;7.75;100.00
55070;BME280;40967;52.070;8.596;2024-03-29T05:15:34;98442.72;;;7.67;100.00
55070;BME280;40967;52.070;8.596;2024-03-29T05:18:00;98456.00;;;7.77;100.00
55070;BME280;40967;52.070;8.596;2024-03-29T05:20:27;98391.56;;;7.48;100.00
55070;BME280;40967;52.070;8.596;2024-03-29T05:22:54;98419.91;;;7.59;100.00
55070;BME280;40967;52.070;8.596;2024-03-29T05:25:20;98435.94;;;7.69;100.00
55070;BME280;40967;52.070;8.596;2024-03-29T05:27:48;98406.81;;;7.53;100.00
55070;BME280;40967;52.070;8.596;2024-03-29T05:30:15;98444.41;;;7.76;100.00
55070;BME280;40967;52.070;8.596;2024-03-29T05:32:44;98435.41;;;7.67;100.00
55070;BME280;40967;52.070;8.596;2024-03-29T05:35:11;98454.09;;;7.77;100.00
55070;BME280;40967;52.070;8.596;2024-03-29T05:37:39;98458.78;;;7.72;100.00
55070;BME280;40967;52.070;8.596;2024-03-29T05:40:07;98449.00;;;7.76;100.00
55070;BME280;40967;52.070;8.596;2024-03-29T05:42:34;98451.09;;;7.79;100.00
55070;BME280;40967;52.070;8.596;2024-03-29T05:45:04;98445.69;;;7.79;100.00
55070;BME280;40967;52.070;8.596;2024-03-29T05:47:31;98433.81;;;7.80;100.00
55070;BME280;40967;52.070;8.596;2024-03-29T05:49:59;98432.19;;;7.79;100.00
55070;BME280;40967;52.070;8.596;2024-03-29T05:52:26;98417.03;;;7.69;100.00
55070;BME280;40967;52.070;8.596;2024-03-29T05:54:53;98433.81;;;7.80;100.00
55070;BME280;40967;52.070;8.596;2024-03-29T05:57:20;98432.19;;;7.79;100.00
55070;BME280;40967;52.070;8.596;2024-03-29T05:59:49;98437.59;;;7.79;100.00
55070;BME280;40967;52.070;8.596;2024-03-29T06:02:17;98433.81;;;7.80;100.00
55070;BME280;40967;52.070;8.596;2024-03-29T06:04:44;98432.19;;;7.79;100.00
55070;BME280;40967;52.070;8.596;2024-03-29T06:07:14;98426.81;;;7.79;100.00
55070;BME280;40967;52.070;8.596;2024-03-29T06:09:41;98434.91;;;7.79;100.00
55070;BME280;40967;52.070;8.596;2024-03-29T06:12:08;98418.69;;;7.79;100.00
55070;BME280;40967;52.070;8.596;2024-03-29T06:14:37;98401.13;;;7.68;100.00
55070;BME280;40967;52.070;8.596;2024-03-29T06:17:21;98415.81;;;7.75;100.00
55070;BME280;40967;52.070;8.596;2024-03-29T06:19:51;98425.53;;;7.76;100.00
55070;BME280;40967;52.070;8.596;2024-03-29T06:22:23;98428.22;;;7.76;100.00
55070;BME280;40967;52.070;8.596;2024-03-29T06:24:49;98403.34;;;7.66;100.00
55070;BME280;40967;52.070;8.596;2024-03-29T06:27:17;98421.22;;;7.75;100.00
55070;BME280;40967;52.070;8.596;2024-03-29T06:29:46;98409.91;;;7.73;100.00
55070;BME280;40967;52.070;8.596;2024-03-29T06:32:13;98388.63;;;7.72;100.00
55070;BME280;40967;52.070;8.596;2024-03-29T06:34:40;98383.22;;;7.72;100.00
55070;BME280;40967;52.070;8.596;2024-03-29T06:37:08;98375.44;;;7.70;100.00
55070;BME280;40967;52.070;8.596;2024-03-29T06:39:36;98379.25;;;7.69;100.00
55070;BME280;40967;52.070;8.596;2024-03-29T06:42:03;98373.84;;;7.69;100.00
55070;BME280;40967;52.070;8.596;2024-03-29T06:44:32;98363.63;;;7.66;100.00
55070;BME280;40967;52.070;8.596;2024-03-29T06:46:59;98329.81;;;7.47;100.00
55070;BME280;40967;52.070;8.596;2024-03-29T06:49:26;98360.03;;;7.71;100.00
55070;BME280;40967;52.070;8.596;2024-03-29T06:51:52;98357.66;;;7.69;100.00
55070;BME280;40967;52.070;8.596;2024-03-29T06:54:21;98348.75;;;7.69;100.00
55070;BME280;40967;52.070;8.596;2024-03-29T06:56:53;98356.34;;;7.67;100.00
55070;BME280;40967;52.070;8.596;2024-03-29T06:59:20;98352.56;;;7.68;100.00
55070;BME280;40967;52.070;8.596;2024-03-29T07:01:46;98348.66;;;7.60;100.00
55070;BME280;40967;52.070;8.596;2024-03-29T07:04:17;98342.16;;;7.61;100.00
55070;BME280;40967;52.070;8.596;2024-03-29T07:06:45;98327.78;;;7.52;100.00
55070;BME280;40967;52.070;8.596;2024-03-29T07:09:13;98336.06;;;7.56;100.00
55070;BME280;40967;52.070;8.596;2024-03-29T07:11:40;98358.72;;;7.68;100.00
55070;BME280;40967;52.070;8.596;2024-03-29T07:14:08;98315.00;;;7.44;100.00
55070;BME280;40967;52.070;8.596;2024-03-29T07:16:34;98345.97;;;7.60;100.00
55070;BME280;40967;52.070;8.596;2024-03-29T07:19:01;98342.47;;;7.60;100.00
55070;BME280;40967;52.070;8.596;2024-03-29T07:21:29;98351.25;;;7.65;100.00
55070;BME280;40967;52.070;8.596;2024-03-29T07:23:56;98349.38;;;7.66;100.00
55070;BME280;40967;52.070;8.596;2024-03-29T07:26:22;98343.66;;;7.67;100.00
55070;BME280;40967;52.070;8.596;2024-03-29T07:28:49;98327.28;;;7.64;100.00
55070;BME280;40967;52.070;8.596;2024-03-29T07:31:17;98328.84;;;7.65;100.00
55070;BME280;40967;52.070;8.596;2024-03-29T07:33:44;98332.75;;;7.72;100.00
55070;BME280;40967;52.070;8.596;2024-03-29T07:36:11;98330.03;;;7.72;100.00
55070;BME280;40967;52.070;8.596;2024-03-29T07:38:38;98330.03;;;7.72;100.00
55070;BME280;40967;52.070;8.596;2024-03-29T07:41:05;98322.13;;;7.76;100.00
55070;BME280;40967;52.070;8.596;2024-03-29T07:43:38;98311.84;;;7.78;100.00
55070;BME280;40967;52.070;8.596;2024-03-29T07:46:05;98302.75;;;7.74;100.00
55070;BME280;40967;52.070;8.596;2024-03-29T07:48:35;98312.81;;;7.82;100.00
55070;BME280;40967;52.070;8.596;2024-03-29T07:51:02;98296.84;;;7.72;100.00
55070;BME280;40967;52.070;8.596;2024-03-29T07:53:29;98305.81;;;7.81;100.00
55070;BME280;40967;52.070;8.596;2024-03-29T07:55:58;98308.03;;;7.79;100.00
55070;BME280;40967;52.070;8.596;2024-03-29T07:58:26;98329.94;;;7.99;100.00
55070;BME280;40967;52.070;8.596;2024-03-29T08:00:53;98282.56;;;7.71;100.00
55070;BME280;40967;52.070;8.596;2024-03-29T08:03:19;98322.72;;;8.08;100.00
55070;BME280;40967;52.070;8.596;2024-03-29T08:05:58;98304.88;;;8.21;100.00
55070;BME280;40967;52.070;8.596;2024-03-29T08:08:26;98307.03;;;8.33;100.00
55070;BME280;40967;52.070;8.596;2024-03-29T08:10:53;98324.72;;;8.39;100.00
55070;BME280;40967;52.070;8.596;2024-03-29T08:13:20;98318.88;;;8.45;100.00
55070;BME280;40967;52.070;8.596;2024-03-29T08:15:48;98317.28;;;8.44;100.00
55070;BME280;40967;52.070;8.596;2024-03-29T08:18:15;98327.84;;;8.54;100.00
55070;BME280;40967;52.070;8.596;2024-03-29T08:20:42;98337.34;;;8.52;100.00
55070;BME280;40967;52.070;8.596;2024-03-29T08:23:10;98348.53;;;8.59;100.00
55070;BME280;40967;52.070;8.596;2024-03-29T08:25:37;98355.72;;;8.63;100.00
55070;BME280;40967;52.070;8.596;2024-03-29T08:28:04;98368.13;;;8.64;100.00
55070;BME280;40967;52.070;8.596;2024-03-29T08:30:31;98368.94;;;8.65;100.00
55070;BME280;40967;52.070;8.596;2024-03-29T08:33:00;98353.13;;;8.58;100.00
55070;BME280;40967;52.070;8.596;2024-03-29T08:35:28;98363.22;;;8.66;100.00
55070;BME280;40967;52.070;8.596;2024-03-29T08:37:55;98331.16;;;8.51;100.00
55070;BME280;40967;52.070;8.596;2024-03-29T08:40:23;98365.72;;;8.63;100.00
55070;BME280;40967;52.070;8.596;2024-03-29T08:42:50;98357.81;;;8.66;100.00
55070;BME280;40967;52.070;8.596;2024-03-29T08:45:17;98360.50;;;8.66;100.00
55070;BME280;40967;52.070;8.596;2024-03-29T08:47:43;98345.28;;;8.70;100.00
55070;BME280;40967;52.070;8.596;2024-03-29T08:50:10;98333.28;;;8.63;100.00
55070;BME280;40967;52.070;8.596;2024-03-29T08:52:38;98355.50;;;8.82;100.00
55070;BME280;40967;52.070;8.596;2024-03-29T08:55:05;98347.25;;;8.87;100.00
55070;BME280;40967;52.070;8.596;2024-03-29T08:57:33;98343.91;;;8.90;100.00
55070;BME280;40967;52.070;8.596;2024-03-29T09:00:00;98360.31;;;8.93;100.00
55070;BME280;40967;52.070;8.596;2024-03-29T09:02:27;98337.38;;;8.82;100.00
55070;BME280;40967;52.070;8.596;2024-03-29T09:04:54;98336.31;;;8.92;100.00
55070;BME280;40967;52.070;8.596;2024-03-29T09:07:21;98344.63;;;9.04;100.00
55070;BME280;40967;52.070;8.596;2024-03-29T09:09:49;98333.97;;;9.07;100.00
55070;BME280;40967;52.070;8.596;2024-03-29T09:12:16;98340.53;;;9.15;100.00
55070;BME280;40967;52.070;8.596;2024-03-29T09:14:45;98324.13;;;9.11;100.00
55070;BME280;40967;52.070;8.596;2024-03-29T09:17:12;98348.53;;;9.29;100.00
55070;BME280;40967;52.070;8.596;2024-03-29T09:19:38;98352.22;;;9.33;100.00
55070;BME280;40967;52.070;8.596;2024-03-29T09:22:05;98350.63;;;9.40;100.00
55070;BME280;40967;52.070;8.596;2024-03-29T09:24:33;98349.72;;;9.45;100.00
55070;BME280;40967;52.070;8.596;2024-03-29T09:26:59;98347.50;;;9.47;100.00
55070;BME280;40967;52.070;8.596;2024-03-29T09:29:26;98353.72;;;9.56;100.00
55070;BME280;40967;52.070;8.596;2024-03-29T09:31:54;98346.38;;;9.56;100.00
55070;BME280;40967;52.070;8.596;2024-03-29T09:34:21;98320.59;;;9.42;100.00
55070;BME280;40967;52.070;8.596;2024-03-29T09:36:48;98305.75;;;9.31;100.00
55070;BME280;40967;52.070;8.596;2024-03-29T09:39:15;98359.03;;;9.78;100.00
55070;BME280;40967;52.070;8.596;2024-03-29T09:41:45;98355.50;;;9.77;100.00
55070;BME280;40967;52.070;8.596;2024-03-29T09:44:12;98377.03;;;9.91;100.00
55070;BME280;40967;52.070;8.596;2024-03-29T09:46:40;98382.94;;;9.93;100.00
55070;BME280;40967;52.070;8.596;2024-03-29T09:49:10;98380.72;;;9.95;100.00
55070;BME280;40967;52.070;8.596;2024-03-29T09:51:38;98367.97;;;9.95;100.00
55070;BME280;40967;52.070;8.596;2024-03-29T09:54:09;98363.66;;;10.03;100.00
55070;BME280;40967;52.070;8.596;2024-03-29T09:56:38;98349.63;;;10.01;100.00
55070;BME280;40967;52.070;8.596;2024-03-29T09:59:06;98368.19;;;10.16;100.00
55070;BME280;40967;52.070;8.596;2024-03-29T10:01:34;98347.28;;;10.16;100.00
55070;BME280;40967;52.070;8.596;2024-03-29T10:04:01;98340.28;;;10.15;100.00
55070;BME280;40967;52.070;8.596;2024-03-29T10:06:33;98364.50;;;10.38;100.00
55070;BME280;40967;52.070;8.596;2024-03-29T10:09:01;98353.31;;;10.30;100.00
55070;BME280;40967;52.070;8.596;2024-03-29T10:11:27;98340.75;;;10.26;100.00
55070;BME280;40967;52.070;8.596;2024-03-29T10:13:54;98365.44;;;10.50;100.00
55070;BME280;40967;52.070;8.596;2024-03-29T10:16:21;98371.97;;;10.58;100.00
55070;BME280;40967;52.070;8.596;2024-03-29T10:18:49;98355.22;;;10.64;100.00
55070;BME280;40967;52.070;8.596;2024-03-29T10:21:16;98354.22;;;10.77;100.00
55070;BME280;40967;52.070;8.596;2024-03-29T10:23:44;98353.25;;;10.82;100.00
55070;BME280;40967;52.070;8.596;2024-03-29T10:26:13;98370.47;;;10.94;100.00
55070;BME280;40967;52.070;8.596;2024-03-29T10:28:39;98374.59;;;11.00;100.00
55070;BME280;40967;52.070;8.596;2024-03-29T10:31:07;98374.88;;;11.07;100.00
55070;BME280;40967;52.070;8.596;2024-03-29T10:33:34;98379.34;;;11.12;100.00
55070;BME280;40967;52.070;8.596;2024-03-29T10:36:02;98381.91;;;11.17;100.00
55070;BME280;40967;52.070;8.596;2024-03-29T10:38:30;98383.28;;;11.23;100.00
55070;BME280;40967;52.070;8.596;2024-03-29T10:40:58;98396.81;;;11.31;100.00
55070;BME280;40967;52.070;8.596;2024-03-29T10:43:27;98377.06;;;11.31;100.00
55070;BME280;40967;52.070;8.596;2024-03-29T10:45:55;98374.75;;;11.41;100.00
55070;BME280;40967;52.070;8.596;2024-03-29T10:48:25;98385.59;;;11.50;100.00
55070;BME280;40967;52.070;8.596;2024-03-29T10:50:54;98377.84;;;11.61;100.00
55070;BME280;40967;52.070;8.596;2024-03-29T10:53:22;98363.81;;;11.59;100.00
55070;BME280;40967;52.070;8.596;2024-03-29T10:55:53;98389.00;;;11.76;100.00
55070;BME280;40967;52.070;8.596;2024-03-29T10:58:22;98318.84;;;11.40;100.00
55070;BME280;40967;52.070;8.596;2024-03-29T11:00:54;98394.78;;;11.95;100.00
55070;BME280;40967;52.070;8.596;2024-03-29T11:03:28;98396.19;;;12.01;100.00
55070;BME280;40967;52.070;8.596;2024-03-29T11:06:02;98386.16;;;11.93;100.00
55070;BME280;40967;52.070;8.596;2024-03-29T11:08:31;98400.16;;;12.04;100.00
55070;BME280;40967;52.070;8.596;2024-03-29T11:11:02;98405.47;;;12.00;100.00
55070;BME280;40967;52.070;8.596;2024-03-29T11:13:33;98417.91;;;12.01;100.00
55070;BME280;40967;52.070;8.596;2024-03-29T11:16:04;98400.09;;;11.92;100.00
55070;BME280;40967;52.070;8.596;2024-03-29T11:18:31;98397.94;;;11.97;100.00
55070;BME280;40967;52.070;8.596;2024-03-29T11:20:59;98407.72;;;11.98;100.00
55070;BME280;40967;52.070;8.596;2024-03-29T11:23:28;98397.81;;;11.94;100.00
55070;BME280;40967;52.070;8.596;2024-03-29T11:25:57;98408.63;;;12.02;100.00
55070;BME280;40967;52.070;8.596;2024-03-29T11:28:27;98397.31;;;12.00;100.00
55070;BME280;40967;52.070;8.596;2024-03-29T11:31:00;98397.88;;;12.06;100.00
55070;BME280;40967;52.070;8.596;2024-03-29T11:33:31;98381.28;;;12.07;100.00
55070;BME280;40967;52.070;8.596;2024-03-29T11:35:59;98389.03;;;12.17;100.00
55070;BME280;40967;52.070;8.596;2024-03-29T11:38:30;98372.25;;;12.15;100.00
55070;BME280;40967;52.070;8.596;2024-03-29T11:41:01;98380.59;;;12.31;100.00
55070;BME280;40967;52.070;8.596;2024-03-29T11:43:29;98377.34;;;12.37;100.00
55070;BME280;40967;52.070;8.596;2024-03-29T11:45:59;98371.69;;;12.42;100.00
55070;BME280;40967;52.070;8.596;2024-03-29T11:48:29;98387.69;;;12.65;100.00
55070;BME280;40967;52.070;8.596;2024-03-29T11:50:57;98387.94;;;12.72;100.00
55070;BME280;40967;52.070;8.596;2024-03-29T11:53:24;98396.78;;;12.81;99.70
55070;BME280;40967;52.070;8.596;2024-03-29T11:55:53;98380.16;;;12.82;98.78
55070;BME280;40967;52.070;8.596;2024-03-29T11:58:21;98373.22;;;12.85;98.39
55070;BME280;40967;52.070;8.596;2024-03-29T12:00:49;98370.63;;;12.88;97.61
55070;BME280;40967;52.070;8.596;2024-03-29T12:03:18;98383.00;;;12.86;97.04
55070;BME280;40967;52.070;8.596;2024-03-29T12:05:46;98406.00;;;12.88;96.92
55070;BME280;40967;52.070;8.596;2024-03-29T12:08:14;98414.06;;;12.85;96.29
55070;BME280;40967;52.070;8.596;2024-03-29T12:10:41;98431.56;;;12.96;96.38
55070;BME280;40967;52.070;8.596;2024-03-29T12:13:08;98409.53;;;12.89;95.80
55070;BME280;40967;52.070;8.596;2024-03-29T12:15:35;98438.72;;;13.00;95.70
55070;BME280;40967;52.070;8.596;2024-03-29T12:18:03;98413.50;;;12.91;95.18
55070;BME280;40967;52.070;8.596;2024-03-29T12:20:32;98405.25;;;13.00;95.01
55070;BME280;40967;52.070;8.596;2024-03-29T12:23:00;98409.84;;;13.08;95.02
55070;BME280;40967;52.070;8.596;2024-03-29T12:25:27;98387.78;;;13.01;94.58
55070;BME280;40967;52.070;8.596;2024-03-29T12:27:54;98383.75;;;13.07;94.29
55070;BME280;40967;52.070;8.596;2024-03-29T12:30:21;98408.59;;;13.17;94.10
55070;BME280;40967;52.070;8.596;2024-03-29T12:32:48;98408.16;;;13.15;93.89
55070;BME280;40967;52.070;8.596;2024-03-29T12:35:15;98410.69;;;13.20;93.39
55070;BME280;40967;52.070;8.596;2024-03-29T12:37:50;98415.34;;;13.32;93.14
55070;BME280;40967;52.070;8.596;2024-03-29T12:40:19;98421.72;;;13.48;93.09
55070;BME280;40967;52.070;8.596;2024-03-29T12:42:48;98440.94;;;13.63;93.27
55070;BME280;40967;52.070;8.596;2024-03-29T12:45:15;98462.75;;;13.76;92.69
55070;BME280;40967;52.070;8.596;2024-03-29T12:47:43;98468.19;;;13.88;91.73
55070;BME280;40967;52.070;8.596;2024-03-29T12:50:12;98469.78;;;13.89;90.31
55070;BME280;40967;52.070;8.596;2024-03-29T12:52:40;98467.97;;;13.93;89.66
55070;BME280;40967;52.070;8.596;2024-03-29T12:55:08;98434.78;;;13.79;88.89
55070;BME280;40967;52.070;8.596;2024-03-29T12:57:35;98454.34;;;13.81;88.67
55070;BME280;40967;52.070;8.596;2024-03-29T13:00:03;98483.28;;;13.97;88.26
55070;BME280;40967;52.070;8.596;2024-03-29T13:02:34;98477.84;;;13.97;88.12
55070;BME280;40967;52.070;8.596;2024-03-29T13:05:01;98475.44;;;14.08;88.06